Time;durP1;ratioP1;P1;durP2;ratioP2;P2;SDS_P1;SDS_P2;PMS_P1;PMS_P2;Temp;Humidity;BMP_temperature;BMP_pressure;BME280_temperature;BME280_humidity;BME280_pressure;Samples;Min_cycle;Max_cycle;Signal;HPM_P1;HPM_P2
2022/09/30 00:01:39;;;;;;;10.98;6.32;;;9.80;99.90;;;;;;5099291;28;20479;-77
2022/09/30 00:04:05;;;;;;;11.05;6.05;;;9.80;99.90;;;;;;5106410;28;20019;-77
2022/09/30 00:06:34;;;;;;;12.70;6.82;;;9.80;99.90;;;;;;5091628;28;20027;-77
2022/09/30 00:09:01;;;;;;;11.23;6.40;;;9.80;99.90;;;;;;5108961;28;20031;-77
2022/09/30 00:11:29;;;;;;;10.25;6.85;;;9.80;99.90;;;;;;5110264;28;20011;-77
2022/09/30 00:13:57;;;;;;;10.55;6.63;;;9.80;99.90;;;;;;5091623;28;20024;-77
2022/09/30 00:16:24;;;;;;;8.80;6.65;;;9.80;99.90;;;;;;5095936;28;20031;-77
2022/09/30 00:18:50;;;;;;;10.02;6.22;;;9.80;99.90;;;;;;5101940;28;20036;-77
2022/09/30 00:21:16;;;;;;;10.77;6.80;;;9.80;99.90;;;;;;5091495;28;20110;-77
2022/09/30 00:23:43;;;;;;;9.48;6.70;;;9.80;99.90;;;;;;5109476;28;20031;-77
2022/09/30 00:26:18;;;;;;;9.10;6.45;;;9.90;99.90;;;;;;5110238;28;20123;-77
2022/09/30 00:28:48;;;;;;;10.13;6.93;;;9.90;99.90;;;;;;5093731;28;20024;-77
2022/09/30 00:31:16;;;;;;;9.55;6.72;;;9.80;99.90;;;;;;5099511;28;20028;-77
2022/09/30 00:33:42;;;;;;;10.75;6.40;;;9.90;99.90;;;;;;5101227;28;20075;-77
2022/09/30 00:36:09;;;;;;;10.85;6.45;;;9.90;99.90;;;;;;5111561;28;20031;-77
2022/09/30 00:38:35;;;;;;;9.63;6.03;;;9.90;99.90;;;;;;5103303;28;20024;-77
2022/09/30 00:41:01;;;;;;;10.13;6.40;;;9.90;99.90;;;;;;5106961;28;20026;-77
2022/09/30 00:43:52;;;;;;;9.05;6.80;;;9.90;99.90;;;;;;5083650;28;20041;-77
2022/09/30 00:46:37;;;;;;;9.90;6.38;;;9.90;99.90;;;;;;5113025;28;20360;-77
2022/09/30 00:49:12;;;;;;;10.40;6.63;;;9.90;99.90;;;;;;5095024;28;20084;-77
2022/09/30 00:51:42;;;;;;;9.90;6.18;;;9.90;99.90;;;;;;5094278;28;20027;-77
2022/09/30 00:54:15;;;;;;;10.30;6.13;;;9.80;99.90;;;;;;5113402;28;20018;-77
2022/09/30 00:56:57;;;;;;;9.25;6.65;;;9.80;99.90;;;;;;5098581;28;20062;-77
2022/09/30 00:59:30;;;;;;;9.20;6.30;;;9.80;99.90;;;;;;5099494;28;20453;-77
2022/09/30 01:02:00;;;;;;;8.90;6.47;;;9.80;99.90;;;;;;5100156;28;20109;-76
2022/09/30 01:04:28;;;;;;;8.82;6.40;;;9.70;99.90;;;;;;5094285;28;20417;-77
2022/09/30 01:06:54;;;;;;;8.32;6.28;;;9.70;99.90;;;;;;5113020;28;20032;-77
2022/09/30 01:09:20;;;;;;;10.68;6.47;;;9.60;99.90;;;;;;5108386;28;20496;-76
2022/09/30 01:11:46;;;;;;;10.70;6.70;;;9.60;99.90;;;;;;5102827;28;20051;-76
2022/09/30 01:14:20;;;;;;;7.20;5.75;;;9.60;99.90;;;;;;5098340;28;20386;-76
2022/09/30 01:17:05;;;;;;;8.18;6.22;;;9.60;99.90;;;;;;5113233;28;20019;-76
2022/09/30 01:19:47;;;;;;;8.48;6.80;;;9.60;99.90;;;;;;5098165;28;20055;-76
2022/09/30 01:22:35;;;;;;;12.63;6.63;;;9.50;99.90;;;;;;5100990;28;20032;-77
2022/09/30 01:25:38;;;;;;;11.50;6.78;;;9.50;99.90;;;;;;5092577;28;20024;-77
2022/09/30 01:28:23;;;;;;;9.70;6.38;;;9.40;99.90;;;;;;5110726;28;20055;-76
2022/09/30 01:31:00;;;;;;;8.93;6.00;;;9.30;99.90;;;;;;5107615;28;20012;-76
2022/09/30 01:33:38;;;;;;;9.13;6.95;;;9.30;99.90;;;;;;5105302;28;20507;-76
2022/09/30 01:36:24;;;;;;;9.50;6.30;;;9.30;99.90;;;;;;5098735;28;20023;-76
2022/09/30 01:39:09;;;;;;;10.60;6.25;;;9.30;99.90;;;;;;5110639;28;20020;-76
2022/09/30 01:41:43;;;;;;;9.25;6.25;;;9.20;99.90;;;;;;5102007;28;20055;-76
2022/09/30 01:44:24;;;;;;;9.35;6.10;;;9.20;99.90;;;;;;5111409;28;20096;-76
2022/09/30 01:47:15;;;;;;;8.75;6.30;;;9.10;99.90;;;;;;5112639;28;20028;-76
2022/09/30 01:49:59;;;;;;;10.48;6.45;;;9.10;99.90;;;;;;5112074;28;20365;-77
2022/09/30 01:52:51;;;;;;;11.73;6.80;;;9.10;99.90;;;;;;5112223;28;20098;-76
2022/09/30 01:55:20;;;;;;;8.27;6.57;;;9.00;99.90;;;;;;5102217;28;20164;-76
2022/09/30 01:57:51;;;;;;;8.25;6.35;;;9.00;99.90;;;;;;5108328;28;20027;-76
2022/09/30 02:00:18;;;;;;;11.25;6.80;;;9.00;99.90;;;;;;5112071;28;20023;-76
2022/09/30 02:02:58;;;;;;;9.13;6.28;;;9.00;99.90;;;;;;5111728;28;20027;-76
2022/09/30 02:05:52;;;;;;;7.32;5.80;;;8.90;99.90;;;;;;5111567;28;20027;-76
2022/09/30 02:08:27;;;;;;;8.90;6.78;;;8.90;99.90;;;;;;5101463;28;20027;-76
2022/09/30 02:11:03;;;;;;;8.57;6.32;;;8.90;99.90;;;;;;5097022;28;21555;-76
2022/09/30 02:13:58;;;;;;;9.57;6.65;;;8.80;99.90;;;;;;5112063;28;20487;-76
2022/09/30 02:16:35;;;;;;;8.68;6.68;;;8.80;99.90;;;;;;5097535;28;20503;-76
2022/09/30 02:19:24;;;;;;;7.95;6.40;;;8.80;99.90;;;;;;5097627;28;20492;-76
2022/09/30 02:21:58;;;;;;;9.90;6.53;;;8.80;99.90;;;;;;5095119;28;20145;-76
2022/09/30 02:24:30;;;;;;;13.18;6.78;;;8.70;99.90;;;;;;5105590;28;20169;-76
2022/09/30 02:27:00;;;;;;;11.02;7.65;;;8.70;99.90;;;;;;5111078;28;20028;-76
2022/09/30 02:29:35;;;;;;;8.95;6.40;;;8.70;99.90;;;;;;5098416;28;20464;-76
2022/09/30 02:32:04;;;;;;;;;;;8.70;99.90;;;;;;5097411;28;20028;-76
2022/09/30 02:34:40;;;;;;;14.05;8.35;;;8.70;99.90;;;;;;5092686;28;19910;-76
2022/09/30 02:37:15;;;;;;;11.15;8.02;;;8.70;99.90;;;;;;5097980;28;20020;-76
2022/09/30 02:39:55;;;;;;;14.98;9.93;;;8.70;99.90;;;;;;5098394;28;20027;-76
2022/09/30 02:42:26;;;;;;;15.60;9.48;;;8.70;99.90;;;;;;5096721;28;20035;-76
2022/09/30 02:44:53;;;;;;;17.88;9.82;;;8.80;99.90;;;;;;5110903;28;20055;-76
2022/09/30 02:47:27;;;;;;;12.52;9.57;;;8.80;99.90;;;;;;5110878;28;20035;-76
2022/09/30 02:50:24;;;;;;;15.43;10.20;;;8.80;99.90;;;;;;5097593;28;20012;-77
2022/09/30 02:53:11;;;;;;;14.52;9.90;;;8.80;99.90;;;;;;5109895;28;20986;-76
2022/09/30 02:56:18;;;;;;;13.40;9.50;;;8.80;99.90;;;;;;5098754;28;20089;-77
2022/09/30 02:58:45;;;;;;;17.13;9.48;;;8.80;99.90;;;;;;5100250;28;20019;-76
2022/09/30 03:01:13;;;;;;;14.73;9.10;;;8.80;99.90;;;;;;5108800;28;20028;-77
2022/09/30 03:03:45;;;;;;;15.10;9.60;;;8.80;99.90;;;;;;5098547;28;20030;-77
2022/09/30 03:06:11;;;;;;;12.68;8.98;;;8.80;99.90;;;;;;5110295;28;20031;-77
2022/09/30 03:08:37;;;;;;;14.88;8.70;;;8.80;99.90;;;;;;5104393;28;20059;-77
2022/09/30 03:11:04;;;;;;;13.60;8.52;;;8.80;99.90;;;;;;5103174;28;20056;-76
2022/09/30 03:13:44;;;;;;;12.32;8.35;;;8.80;99.90;;;;;;5110626;28;20015;-77
2022/09/30 03:16:23;;;;;;;12.43;8.38;;;8.70;99.90;;;;;;5110793;28;20023;-76
2022/09/30 03:19:18;;;;;;;12.63;8.48;;;8.70;99.90;;;;;;5078931;28;20077;-76
2022/09/30 03:21:56;;;;;;;12.10;7.95;;;8.70;99.90;;;;;;5107856;28;20039;-77
2022/09/30 03:24:28;;;;;;;9.15;7.38;;;8.70;99.90;;;;;;5090580;28;20291;-77
2022/09/30 03:27:06;;;;;;;11.70;7.88;;;8.60;99.90;;;;;;5105485;28;20020;-76
2022/09/30 03:29:47;;;;;;;10.57;7.80;;;8.60;99.90;;;;;;5110638;28;20096;-77
2022/09/30 03:32:19;;;;;;;10.27;7.55;;;8.60;99.90;;;;;;5110325;28;20028;-76
2022/09/30 03:35:02;;;;;;;12.13;7.53;;;8.50;99.90;;;;;;5110804;28;20031;-77
2022/09/30 03:37:42;;;;;;;11.93;7.72;;;8.50;99.90;;;;;;5088533;28;20519;-77
2022/09/30 03:40:16;;;;;;;11.88;8.43;;;8.50;99.90;;;;;;5083680;28;20031;-77
2022/09/30 03:42:53;;;;;;;10.80;7.60;;;8.50;99.90;;;;;;5110215;28;20030;-76
2022/09/30 03:45:32;;;;;;;14.48;8.68;;;8.50;99.90;;;;;;5110520;28;20584;-76
2022/09/30 03:48:02;;;;;;;13.73;8.25;;;8.50;99.90;;;;;;5109664;28;20061;-76
2022/09/30 03:50:31;;;;;;;15.18;10.27;;;8.50;99.90;;;;;;5110326;28;20016;-77
2022/09/30 03:52:57;;;;;;;13.95;10.45;;;8.60;99.90;;;;;;5109633;28;20019;-76
2022/09/30 03:55:24;;;;;;;15.85;11.00;;;8.60;99.90;;;;;;5110037;28;20032;-76
2022/09/30 03:57:51;;;;;;;17.33;11.63;;;8.70;99.90;;;;;;5109879;28;20080;-76
2022/09/30 04:00:17;;;;;;;17.35;11.35;;;8.70;99.90;;;;;;5110625;28;20129;-77
2022/09/30 04:02:44;;;;;;;19.05;11.30;;;8.70;99.90;;;;;;5114077;28;20040;-77
2022/09/30 04:05:10;;;;;;;12.70;9.73;;;8.80;99.90;;;;;;5114387;28;20023;-77
2022/09/30 04:07:36;;;;;;;14.60;9.85;;;8.80;99.90;;;;;;5114697;28;20015;-77
2022/09/30 04:10:02;;;;;;;14.98;9.75;;;8.70;99.90;;;;;;5114424;28;20444;-77
2022/09/30 04:12:28;;;;;;;14.52;10.00;;;8.70;99.90;;;;;;5113978;28;20032;-77
2022/09/30 04:14:53;;;;;;;14.70;9.80;;;8.70;99.90;;;;;;5081339;28;20080;-77
2022/09/30 04:17:19;;;;;;;16.58;11.75;;;8.70;99.90;;;;;;5114046;28;20016;-77
2022/09/30 04:19:44;;;;;;;15.30;10.35;;;8.70;99.90;;;;;;5113832;28;20019;-77
2022/09/30 04:22:10;;;;;;;16.15;9.93;;;8.70;99.90;;;;;;5114037;28;20020;-77
2022/09/30 04:24:36;;;;;;;14.07;10.55;;;8.70;99.90;;;;;;5113892;28;20110;-77
2022/09/30 04:27:02;;;;;;;19.88;11.43;;;8.70;99.90;;;;;;5112519;28;20491;-77
2022/09/30 04:29:28;;;;;;;18.83;12.18;;;8.70;99.90;;;;;;5114275;28;20027;-77
2022/09/30 04:31:53;;;;;;;17.35;11.52;;;8.70;99.90;;;;;;5100313;28;20491;-77
2022/09/30 04:34:19;;;;;;;17.42;11.00;;;8.70;99.90;;;;;;5128658;27;20047;-77
2022/09/30 04:36:45;;;;;;;15.60;10.32;;;8.70;99.90;;;;;;5114229;28;20136;-77
2022/09/30 04:39:10;;;;;;;16.42;10.93;;;8.70;99.90;;;;;;5095369;28;20503;-77
2022/09/30 04:41:37;;;;;;;14.52;9.80;;;8.70;99.90;;;;;;5113817;28;20103;-77
2022/09/30 04:44:06;;;;;;;14.80;10.13;;;8.70;99.90;;;;;;5098331;28;20105;-77
2022/09/30 04:46:35;;;;;;;16.73;10.68;;;8.60;99.90;;;;;;5087682;28;20063;-77
2022/09/30 04:49:02;;;;;;;14.68;10.52;;;8.60;99.90;;;;;;5107004;28;20062;-77
2022/09/30 04:51:28;;;;;;;17.00;11.20;;;8.60;99.90;;;;;;5100893;28;20040;-77
2022/09/30 04:53:54;;;;;;;15.45;10.43;;;8.60;99.90;;;;;;5111365;28;20060;-77
2022/09/30 04:56:21;;;;;;;16.70;11.50;;;8.60;99.90;;;;;;5107006;28;20055;-77
2022/09/30 04:58:47;;;;;;;16.52;11.20;;;8.60;99.90;;;;;;5110406;28;20029;-77
2022/09/30 05:01:14;;;;;;;16.05;11.25;;;8.50;99.90;;;;;;5106083;28;20099;-77
2022/09/30 05:03:40;;;;;;;14.32;10.80;;;8.50;99.90;;;;;;5110367;28;20030;-76
2022/09/30 05:06:06;;;;;;;16.77;11.68;;;8.50;99.90;;;;;;5109015;28;20024;-76
2022/09/30 05:08:33;;;;;;;16.95;10.95;;;8.50;99.90;;;;;;5109350;28;20144;-76
2022/09/30 05:11:01;;;;;;;16.05;10.95;;;8.50;99.90;;;;;;5110137;28;20027;-76
2022/09/30 05:13:35;;;;;;;14.40;11.00;;;8.40;99.90;;;;;;5107656;28;20396;-76
2022/09/30 05:16:01;;;;;;;17.35;11.38;;;8.40;99.90;;;;;;5105852;28;20099;-76
2022/09/30 05:18:28;;;;;;;17.30;11.57;;;8.40;99.90;;;;;;5103157;28;20055;-75
2022/09/30 05:20:56;;;;;;;20.77;13.38;;;8.40;99.90;;;;;;5106346;28;20027;-76
2022/09/30 05:23:23;;;;;;;21.50;12.90;;;8.40;99.90;;;;;;5099445;28;20047;-75
2022/09/30 05:25:49;;;;;;;19.67;13.10;;;8.40;99.90;;;;;;5104759;28;20096;-75
2022/09/30 05:28:15;;;;;;;23.02;14.30;;;8.40;99.90;;;;;;5101354;28;20124;-75
2022/09/30 05:30:42;;;;;;;19.02;12.70;;;8.40;99.90;;;;;;5098859;28;20094;-76
2022/09/30 05:33:11;;;;;;;20.38;14.07;;;8.40;99.90;;;;;;5098396;28;20035;-76
2022/09/30 05:35:39;;;;;;;18.58;12.57;;;8.30;99.90;;;;;;5088399;28;20406;-76
2022/09/30 05:38:04;;;;;;;19.88;13.57;;;8.30;99.90;;;;;;5091928;28;20021;-76
2022/09/30 05:40:31;;;;;;;22.05;13.50;;;8.30;99.90;;;;;;5104924;28;20593;-75
2022/09/30 05:42:58;;;;;;;21.20;13.80;;;8.30;99.90;;;;;;5104681;28;20020;-75
2022/09/30 05:45:24;;;;;;;21.15;13.65;;;8.30;99.90;;;;;;5090110;28;20531;-75
2022/09/30 05:47:51;;;;;;;25.42;14.35;;;8.30;99.90;;;;;;5105420;28;20063;-76
2022/09/30 05:50:17;;;;;;;20.13;14.43;;;8.30;99.90;;;;;;5102285;28;20338;-75
2022/09/30 05:52:43;;;;;;;21.10;15.02;;;8.30;99.90;;;;;;5106565;28;20020;-75
2022/09/30 05:55:08;;;;;;;25.10;16.63;;;8.20;99.90;;;;;;5100144;28;20570;-76
2022/09/30 05:57:35;;;;;;;28.95;16.77;;;8.30;99.90;;;;;;5103712;28;20483;-75
2022/09/30 06:00:00;;;;;;;25.95;17.02;;;8.30;99.90;;;;;;5104641;28;20047;-75
2022/09/30 06:02:26;;;;;;;26.40;17.83;;;8.30;99.90;;;;;;5097532;28;20435;-75
2022/09/30 06:04:52;;;;;;;24.73;16.35;;;8.30;99.90;;;;;;5111860;28;20506;-75
2022/09/30 06:07:17;;;;;;;23.70;16.00;;;8.40;99.90;;;;;;5100482;28;20042;-75
2022/09/30 06:09:44;;;;;;;25.77;16.05;;;8.40;99.90;;;;;;5105640;28;20289;-76
2022/09/30 06:12:10;;;;;;;29.63;16.02;;;8.40;99.90;;;;;;5105726;28;20107;-75
2022/09/30 06:14:36;;;;;;;24.50;15.80;;;8.40;99.90;;;;;;5103386;28;20107;-75
2022/09/30 06:17:03;;;;;;;28.30;16.98;;;8.40;99.90;;;;;;5110762;28;20028;-75
2022/09/30 06:19:29;;;;;;;25.92;16.40;;;8.40;99.90;;;;;;5109761;28;20467;-75
2022/09/30 06:21:59;;;;;;;29.50;17.48;;;8.50;99.90;;;;;;5099278;28;20020;-76
2022/09/30 06:24:25;;;;;;;27.42;17.85;;;8.50;99.90;;;;;;5097315;28;20166;-75
2022/09/30 06:26:50;;;;;;;31.27;20.33;;;8.50;99.90;;;;;;5096258;28;20091;-76
2022/09/30 06:29:16;;;;;;;32.13;20.35;;;8.60;99.90;;;;;;5111690;28;20023;-76
2022/09/30 06:31:41;;;;;;;30.73;19.08;;;8.60;99.90;;;;;;5107654;28;20146;-76
2022/09/30 06:34:09;;;;;;;33.92;22.20;;;8.70;99.90;;;;;;5090120;28;20020;-76
2022/09/30 06:36:34;;;;;;;34.55;21.90;;;8.70;99.90;;;;;;5101797;28;20016;-76
2022/09/30 06:39:01;;;;;;;40.08;22.80;;;8.80;99.90;;;;;;5090955;28;20027;-76
2022/09/30 06:41:27;;;;;;;33.72;22.23;;;9.00;99.90;;;;;;5104722;28;20024;-76
2022/09/30 06:43:53;;;;;;;35.85;22.88;;;9.10;99.90;;;;;;5100776;28;20103;-76
2022/09/30 06:46:22;;;;;;;38.00;24.30;;;9.20;99.90;;;;;;5101312;28;20063;-76
2022/09/30 06:48:55;;;;;;;42.78;25.92;;;9.30;99.90;;;;;;5091067;28;20389;-76
2022/09/30 06:51:20;;;;;;;41.67;26.50;;;9.40;99.90;;;;;;5104736;28;20017;-76
2022/09/30 06:53:50;;;;;;;38.95;25.45;;;9.50;99.90;;;;;;5102738;28;20073;-75
2022/09/30 06:56:17;;;;;;;41.25;26.17;;;9.70;99.90;;;;;;5095860;28;20065;-75
2022/09/30 06:58:44;;;;;;;40.38;25.85;;;9.70;99.90;;;;;;5096832;28;20016;-76
2022/09/30 07:01:14;;;;;;;41.17;25.30;;;9.80;99.90;;;;;;5097040;28;20019;-78
2022/09/30 07:03:43;;;;;;;40.05;25.83;;;9.90;99.90;;;;;;5100075;28;20254;-76
2022/09/30 07:06:10;;;;;;;45.10;27.67;;;10.00;99.90;;;;;;5090498;27;20020;-76
2022/09/30 07:08:37;;;;;;;40.28;26.10;;;10.10;99.90;;;;;;5097195;28;20114;-76
2022/09/30 07:11:13;;;;;;;40.47;25.98;;;10.20;99.90;;;;;;5103146;28;20023;-76
2022/09/30 07:13:44;;;;;;;40.63;26.35;;;10.30;99.90;;;;;;5098888;28;20427;-76
2022/09/30 07:16:12;;;;;;;41.30;26.15;;;10.40;99.90;;;;;;5095891;28;20023;-77
2022/09/30 07:18:39;;;;;;;41.42;26.73;;;10.50;99.90;;;;;;5102768;28;20065;-76
2022/09/30 07:21:04;;;;;;;38.58;25.65;;;10.50;99.90;;;;;;5104287;28;20023;-75
2022/09/30 07:23:31;;;;;;;42.10;25.90;;;10.60;99.90;;;;;;5101783;28;20020;-76
2022/09/30 07:25:59;;;;;;;43.92;27.27;;;10.70;99.90;;;;;;5101687;28;20048;-75
2022/09/30 07:28:30;;;;;;;44.08;27.80;;;10.80;99.90;;;;;;5104381;28;20026;-77
2022/09/30 07:31:02;;;;;;;42.58;25.88;;;10.80;99.90;;;;;;5103899;28;20035;-77
2022/09/30 07:33:31;;;;;;;43.15;26.70;;;10.90;99.90;;;;;;5090527;28;20028;-77
2022/09/30 07:35:58;;;;;;;41.55;25.77;;;11.00;99.90;;;;;;5099429;28;20069;-77
2022/09/30 07:38:27;;;;;;;38.15;24.83;;;11.10;99.90;;;;;;5099766;28;20019;-77
2022/09/30 07:41:06;;;;;;;39.53;25.00;;;11.20;99.90;;;;;;5102171;28;20035;-77
2022/09/30 07:43:39;;;;;;;38.85;24.95;;;11.20;99.90;;;;;;5094513;28;20045;-77
2022/09/30 07:46:09;;;;;;;35.15;23.42;;;11.30;99.90;;;;;;5101937;28;20148;-77
2022/09/30 07:48:42;;;;;;;33.03;21.33;;;11.40;99.90;;;;;;5100227;28;20144;-77
2022/09/30 07:51:12;;;;;;;30.80;20.27;;;11.50;99.90;;;;;;5105647;28;20089;-78
2022/09/30 07:53:39;;;;;;;31.45;19.08;;;11.60;99.90;;;;;;5096865;28;20496;-77
2022/09/30 07:56:05;;;;;;;27.48;17.95;;;11.70;99.90;;;;;;5098120;28;20488;-77
2022/09/30 07:58:31;;;;;;;23.58;16.30;;;11.80;99.90;;;;;;5101803;28;20423;-77
2022/09/30 08:00:57;;;;;;;26.27;15.27;;;11.90;99.90;;;;;;5096370;28;20070;-77
2022/09/30 08:03:22;;;;;;;20.83;13.82;;;12.00;99.90;;;;;;5098069;28;20020;-77
2022/09/30 08:05:48;;;;;;;20.50;13.20;;;12.10;99.90;;;;;;5100336;28;20084;-78
2022/09/30 08:08:15;;;;;;;19.33;12.27;;;12.20;99.90;;;;;;5100465;28;20076;-77
2022/09/30 08:10:41;;;;;;;18.55;12.13;;;12.30;99.90;;;;;;5103357;28;20467;-77
2022/09/30 08:13:08;;;;;;;19.55;11.57;;;12.40;99.90;;;;;;5096944;28;20062;-77
2022/09/30 08:15:33;;;;;;;18.95;11.63;;;12.50;99.90;;;;;;5100522;28;20056;-77
2022/09/30 08:17:59;;;;;;;15.15;10.02;;;12.60;99.90;;;;;;5093499;28;20083;-78
2022/09/30 08:20:25;;;;;;;13.50;9.77;;;12.70;99.90;;;;;;5103859;28;20020;-75
2022/09/30 08:22:54;;;;;;;12.90;8.68;;;12.80;99.90;;;;;;5109015;28;20031;-76
2022/09/30 08:25:21;;;;;;;11.77;8.48;;;13.00;99.90;;;;;;5104192;28;20089;-76
2022/09/30 08:27:47;;;;;;;11.93;8.05;;;13.10;99.90;;;;;;5101263;28;20251;-76
2022/09/30 08:30:12;;;;;;;11.27;7.53;;;13.10;99.90;;;;;;5109273;28;20024;-76
2022/09/30 08:32:38;;;;;;;9.82;7.18;;;13.20;99.90;;;;;;5105142;28;20391;-76
2022/09/30 08:35:04;;;;;;;11.18;6.43;;;13.30;99.90;;;;;;5108564;28;20096;-76
2022/09/30 08:37:30;;;;;;;9.80;6.43;;;13.50;99.90;;;;;;5103948;28;20102;-76
2022/09/30 08:39:55;;;;;;;9.27;5.93;;;13.60;99.90;;;;;;5105533;28;20275;-76
2022/09/30 08:42:46;;;;;;;9.05;6.22;;;13.70;99.90;;;;;;5105775;28;20016;-76
2022/09/30 08:45:27;;;;;;;8.25;5.90;;;13.90;99.90;;;;;;5101673;28;20051;-76
2022/09/30 08:48:30;;;;;;;8.15;4.93;;;14.00;99.90;;;;;;5102426;28;20049;-76
2022/09/30 08:51:01;;;;;;;11.02;4.82;;;14.10;99.90;;;;;;5105466;28;20600;-76
2022/09/30 08:53:32;;;;;;;8.77;4.47;;;14.20;99.90;;;;;;5106084;28;20077;-75
2022/09/30 08:56:01;;;;;;;7.38;4.30;;;14.40;99.90;;;;;;5099615;28;20035;-75
2022/09/30 08:58:30;;;;;;;9.15;4.13;;;14.50;99.90;;;;;;5106082;28;20055;-76
2022/09/30 09:01:31;;;;;;;5.38;4.10;;;14.60;99.90;;;;;;5111918;28;20028;-76
2022/09/30 09:03:58;;;;;;;7.07;3.72;;;14.70;99.90;;;;;;5103438;28;20032;-75
2022/09/30 09:06:26;;;;;;;5.32;3.22;;;14.80;99.90;;;;;;5100203;28;20063;-75
2022/09/30 09:09:02;;;;;;;8.77;3.47;;;14.90;99.90;;;;;;5107135;28;20491;-75
2022/09/30 09:11:55;;;;;;;5.47;3.05;;;15.10;99.90;;;;;;5092922;28;20027;-76
2022/09/30 09:14:30;;;;;;;6.32;3.08;;;15.20;99.90;;;;;;5093028;28;20087;-75
2022/09/30 09:17:17;;;;;;;4.40;2.70;;;15.30;99.90;;;;;;5099621;28;20047;-75
2022/09/30 09:19:57;;;;;;;6.70;2.60;;;15.50;99.90;;;;;;5094165;28;20027;-75
2022/09/30 09:22:25;;;;;;;4.38;2.40;;;15.50;99.90;;;;;;5106243;28;20024;-75
2022/09/30 09:24:52;;;;;;;6.88;2.65;;;15.70;99.90;;;;;;5104090;28;20040;-75
2022/09/30 09:27:28;;;;;;;2.58;2.00;;;15.80;99.90;;;;;;5094441;28;20027;-75
2022/09/30 09:30:05;;;;;;;3.88;1.70;;;15.90;99.90;;;;;;5100033;28;20475;-76
2022/09/30 09:32:31;;;;;;;2.60;1.50;;;15.90;99.90;;;;;;5112574;28;20483;-76
2022/09/30 09:35:21;;;;;;;3.08;1.40;;;16.00;99.90;;;;;;5108575;28;20121;-75
2022/09/30 09:38:25;;;;;;;4.40;1.40;;;16.10;99.90;;;;;;5102591;28;20126;-75
2022/09/30 09:40:56;;;;;;;2.83;1.40;;;16.20;99.90;;;;;;5103778;28;20078;-75
2022/09/30 09:43:32;;;;;;;3.30;1.20;;;16.20;99.90;;;;;;5111350;28;20015;-75
2022/09/30 09:46:22;;;;;;;2.15;0.95;;;16.40;99.90;;;;;;5108609;28;20036;-74
2022/09/30 09:49:09;;;;;;;5.60;1.00;;;16.40;99.90;;;;;;5094296;28;20063;-74
2022/09/30 09:51:40;;;;;;;2.33;0.90;;;16.50;99.90;;;;;;5097815;28;20387;-75
2022/09/30 09:54:11;;;;;;;2.42;0.98;;;16.60;99.90;;;;;;5107993;28;20038;-75
2022/09/30 09:56:36;;;;;;;4.40;1.10;;;16.60;99.90;;;;;;5092677;28;20031;-75
2022/09/30 09:59:08;;;;;;;3.42;0.82;;;16.60;99.90;;;;;;5103470;28;20042;-75
2022/09/30 10:01:37;;;;;;;4.07;0.80;;;16.70;99.90;;;;;;5104320;28;20062;-75
2022/09/30 10:04:10;;;;;;;3.42;1.00;;;16.70;99.90;;;;;;5091829;28;20552;-75
2022/09/30 10:07:13;;;;;;;2.80;0.90;;;16.90;99.90;;;;;;5101014;28;20028;-75
2022/09/30 10:09:40;;;;;;;1.73;0.85;;;17.00;99.90;;;;;;5100030;28;20543;-75
2022/09/30 10:12:05;;;;;;;4.07;1.00;;;17.10;99.90;;;;;;5104018;28;20036;-78
2022/09/30 10:14:46;;;;;;;4.15;1.10;;;17.20;99.90;;;;;;5108159;28;20028;-78
2022/09/30 10:17:37;;;;;;;2.13;1.10;;;17.30;99.90;;;;;;5104822;28;20386;-77
2022/09/30 10:20:15;;;;;;;2.97;1.10;;;17.30;99.90;;;;;;5108923;28;20051;-78
2022/09/30 10:22:41;;;;;;;4.38;1.25;;;17.40;99.90;;;;;;5106013;28;20464;-78
2022/09/30 10:25:22;;;;;;;3.38;1.20;;;17.30;99.90;;;;;;5106877;28;20053;-78
2022/09/30 10:27:52;;;;;;;4.13;1.40;;;17.20;99.90;;;;;;5110230;28;20628;-78
2022/09/30 10:30:33;;;;;;;5.57;1.58;;;17.10;99.90;;;;;;5112281;28;20019;-77
2022/09/30 10:33:02;;;;;;;4.30;1.60;;;17.10;99.90;;;;;;5101740;28;20028;-78
2022/09/30 10:35:28;;;;;;;4.63;1.50;;;17.10;99.90;;;;;;5110313;28;20022;-78
2022/09/30 10:37:55;;;;;;;3.13;1.65;;;17.20;99.90;;;;;;5090510;28;20031;-78
2022/09/30 10:40:26;;;;;;;5.85;1.58;;;17.20;99.90;;;;;;5110067;28;20031;-78
2022/09/30 10:42:53;;;;;;;2.65;1.80;;;17.20;99.90;;;;;;5102879;28;20127;-78
2022/09/30 10:45:20;;;;;;;5.20;1.85;;;17.40;99.90;;;;;;5110410;28;20153;-77
2022/09/30 10:47:49;;;;;;;5.00;1.60;;;17.60;99.90;;;;;;5103130;28;20098;-78
2022/09/30 10:50:19;;;;;;;4.07;2.13;;;17.70;99.90;;;;;;5105254;28;20019;-78
2022/09/30 10:53:12;;;;;;;4.70;2.55;;;17.90;99.90;;;;;;5108552;28;20016;-78
2022/09/30 10:55:43;;;;;;;5.00;3.13;;;17.90;99.90;;;;;;5108997;28;20482;-78
2022/09/30 10:58:46;;;;;;;4.90;3.28;;;17.90;99.90;;;;;;5106402;28;20514;-77
2022/09/30 11:01:37;;;;;;;6.90;3.60;;;18.00;99.90;;;;;;5102901;28;20050;-77
2022/09/30 11:04:06;;;;;;;7.30;3.83;;;18.00;99.90;;;;;;5095985;28;20039;-77
2022/09/30 11:06:36;;;;;;;7.72;3.28;;;18.00;99.90;;;;;;5105650;28;20040;-77
2022/09/30 11:09:16;;;;;;;5.68;2.90;;;18.10;99.90;;;;;;5103827;28;20070;-77
2022/09/30 11:11:48;;;;;;;5.97;2.50;;;18.00;99.90;;;;;;5101500;28;20048;-77
2022/09/30 11:14:28;;;;;;;6.30;2.70;;;18.20;99.90;;;;;;5106323;28;20026;-77
2022/09/30 11:17:00;;;;;;;4.22;2.90;;;18.20;99.90;;;;;;5097639;28;20019;-78
2022/09/30 11:20:18;;;;;;;5.38;2.70;;;18.30;99.90;;;;;;5096704;28;20379;-78
2022/09/30 11:22:50;;;;;;;6.78;2.85;;;18.30;99.90;;;;;;5084108;28;20032;-78
2022/09/30 11:25:26;;;;;;;6.93;3.47;;;18.30;99.90;;;;;;5104184;28;20392;-77
2022/09/30 11:28:08;;;;;;;5.00;3.13;;;18.40;99.90;;;;;;5111210;28;20027;-77
2022/09/30 11:30:59;;;;;;;4.68;3.45;;;18.50;99.90;;;;;;5097881;27;20032;-77
2022/09/30 11:33:47;;;;;;;7.13;3.58;;;18.60;99.90;;;;;;5071679;28;20024;-76
2022/09/30 11:36:45;;;;;;;7.63;4.03;;;18.70;99.90;;;;;;5097274;28;20019;-78
2022/09/30 11:39:37;;;;;;;9.80;4.43;;;18.70;99.90;;;;;;5108523;28;20518;-77
2022/09/30 11:42:25;;;;;;;8.90;3.50;;;18.60;99.90;;;;;;5093391;28;20024;-78
2022/09/30 11:45:08;;;;;;;6.90;3.10;;;18.40;99.90;;;;;;5111422;28;20054;-77
2022/09/30 11:48:08;;;;;;;5.60;2.72;;;18.10;99.90;;;;;;5104304;28;21427;-77
2022/09/30 11:50:53;;;;;;;3.88;2.80;;;17.90;99.90;;;;;;5103326;28;20107;-78
2022/09/30 11:53:44;;;;;;;5.55;2.80;;;17.60;99.90;;;;;;5101331;28;20024;-78
2022/09/30 11:56:39;;;;;;;8.27;2.97;;;17.40;99.90;;;;;;5109415;28;20513;-78
2022/09/30 11:59:13;;;;;;;5.18;2.78;;;17.30;99.90;;;;;;5093597;28;20189;-77
2022/09/30 12:01:44;;;;;;;4.13;2.23;;;17.20;99.90;;;;;;5100625;28;20020;-78
2022/09/30 12:04:32;;;;;;;6.32;2.47;;;17.10;99.90;;;;;;5088755;28;20487;-78
2022/09/30 12:07:17;;;;;;;8.88;2.70;;;17.00;99.90;;;;;;5099306;28;20066;-77
2022/09/30 12:09:45;;;;;;;4.63;2.60;;;16.90;99.90;;;;;;5089189;28;20023;-77
2022/09/30 12:12:13;;;;;;;4.88;2.42;;;16.90;99.90;;;;;;5114407;28;20034;-78
2022/09/30 12:14:44;;;;;;;5.90;3.10;;;16.90;99.90;;;;;;5108480;28;20335;-77
2022/09/30 12:17:31;;;;;;;6.10;3.40;;;16.90;99.90;;;;;;5103014;28;20085;-77
2022/09/30 12:20:01;;;;;;;5.45;2.72;;;16.90;99.90;;;;;;5085883;28;20098;-77
2022/09/30 12:22:38;;;;;;;6.63;3.33;;;17.00;99.90;;;;;;5097927;28;20027;-78
2022/09/30 12:25:22;;;;;;;6.53;3.20;;;17.10;99.90;;;;;;5114377;28;20137;-78
2022/09/30 12:31:19;;;;;;;6.05;3.25;;;17.40;99.90;;;;;;5106634;28;20524;-78
2022/09/30 12:34:21;;;;;;;5.20;3.05;;;17.50;99.90;;;;;;5104354;28;20074;-77
2022/09/30 12:37:26;;;;;;;8.98;3.67;;;17.60;99.90;;;;;;5118395;28;20015;-77
2022/09/30 12:40:25;;;;;;;7.28;3.10;;;17.60;99.90;;;;;;5083787;28;20368;-77
2022/09/30 12:42:57;;;;;;;5.97;2.80;;;17.70;99.90;;;;;;5118092;28;20495;-76
2022/09/30 12:45:22;;;;;;;5.15;3.08;;;17.80;99.90;;;;;;5117794;28;20596;-77
2022/09/30 12:47:53;;;;;;;8.48;2.88;;;17.90;99.90;;;;;;5115799;28;20015;-78
2022/09/30 12:50:23;;;;;;;3.58;2.30;;;17.90;99.90;;;;;;5116447;28;20380;-78
2022/09/30 12:52:49;;;;;;;2.75;2.35;;;17.90;99.90;;;;;;5096787;28;20016;-78
2022/09/30 12:55:24;;;;;;;5.25;2.83;;;17.90;99.90;;;;;;5097983;28;20165;-75
2022/09/30 12:57:51;;;;;;;5.53;2.50;;;17.90;99.90;;;;;;5100855;28;20031;-77
2022/09/30 13:00:23;;;;;;;3.47;1.90;;;17.90;99.90;;;;;;5116163;28;20016;-77
2022/09/30 13:03:04;;;;;;;3.22;2.10;;;17.80;99.90;;;;;;5110585;28;20144;-77
2022/09/30 13:05:30;;;;;;;3.28;1.63;;;17.80;99.90;;;;;;5110506;28;20032;-77
2022/09/30 13:08:18;;;;;;;3.28;2.10;;;17.80;99.90;;;;;;5109716;28;20026;-76
2022/09/30 13:10:47;;;;;;;3.88;1.67;;;17.90;99.90;;;;;;5090877;28;20046;-78
2022/09/30 13:13:12;;;;;;;3.17;1.73;;;17.80;99.90;;;;;;5108958;28;20019;-78
2022/09/30 13:15:43;;;;;;;2.92;1.98;;;17.90;99.90;;;;;;5098452;28;20024;-77
2022/09/30 13:18:20;;;;;;;6.20;1.88;;;17.80;99.90;;;;;;5102701;28;20629;-76